sensor_id;sensor_type;location;lat;lon;timestamp;P1;durP1;ratioP1;P2;durP2;ratioP2
52618;SDS011;38513;53.234;6.568;2023-02-01T00:02:19;34.05;;;7.43;;
52618;SDS011;38513;53.234;6.568;2023-02-01T00:04:52;31.13;;;7.75;;
52618;SDS011;38513;53.234;6.568;2023-02-01T00:07:18;36.00;;;7.60;;
52618;SDS011;38513;53.234;6.568;2023-02-01T00:09:44;34.92;;;7.63;;
52618;SDS011;38513;53.234;6.568;2023-02-01T00:12:10;34.58;;;7.28;;
52618;SDS011;38513;53.234;6.568;2023-02-01T00:14:36;33.22;;;8.25;;
52618;SDS011;38513;53.234;6.568;2023-02-01T00:17:07;33.78;;;7.10;;
52618;SDS011;38513;53.234;6.568;2023-02-01T00:19:34;31.80;;;7.13;;
52618;SDS011;38513;53.234;6.568;2023-02-01T00:22:00;34.60;;;7.53;;
52618;SDS011;38513;53.234;6.568;2023-02-01T00:24:26;32.70;;;7.07;;
52618;SDS011;38513;53.234;6.568;2023-02-01T00:26:56;34.83;;;6.90;;
52618;SDS011;38513;53.234;6.568;2023-02-01T00:29:26;32.25;;;6.80;;
52618;SDS011;38513;53.234;6.568;2023-02-01T00:31:52;30.27;;;7.40;;
52618;SDS011;38513;53.234;6.568;2023-02-01T00:34:18;29.67;;;6.43;;
52618;SDS011;38513;53.234;6.568;2023-02-01T00:36:45;29.27;;;6.28;;
52618;SDS011;38513;53.234;6.568;2023-02-01T00:39:12;31.27;;;7.30;;
52618;SDS011;38513;53.234;6.568;2023-02-01T00:41:38;28.23;;;6.30;;
52618;SDS011;38513;53.234;6.568;2023-02-01T00:44:05;28.10;;;6.32;;
52618;SDS011;38513;53.234;6.568;2023-02-01T00:46:31;31.70;;;6.75;;
52618;SDS011;38513;53.234;6.568;2023-02-01T00:48:57;27.55;;;6.20;;
52618;SDS011;38513;53.234;6.568;2023-02-01T00:51:25;29.02;;;6.32;;
52618;SDS011;38513;53.234;6.568;2023-02-01T00:53:51;30.20;;;6.13;;
52618;SDS011;38513;53.234;6.568;2023-02-01T00:56:18;30.10;;;6.43;;
52618;SDS011;38513;53.234;6.568;2023-02-01T00:58:44;30.75;;;7.22;;
52618;SDS011;38513;53.234;6.568;2023-02-01T01:03:37;33.90;;;7.47;;
52618;SDS011;38513;53.234;6.568;2023-02-01T01:06:05;30.40;;;6.97;;
52618;SDS011;38513;53.234;6.568;2023-02-01T01:08:32;32.50;;;6.57;;
52618;SDS011;38513;53.234;6.568;2023-02-01T01:10:58;31.80;;;6.10;;
52618;SDS011;38513;53.234;6.568;2023-02-01T01:13:24;28.90;;;6.07;;
52618;SDS011;38513;53.234;6.568;2023-02-01T01:15:50;29.98;;;6.82;;
52618;SDS011;38513;53.234;6.568;2023-02-01T01:18:16;31.17;;;7.00;;
52618;SDS011;38513;53.234;6.568;2023-02-01T01:20:43;25.88;;;6.85;;
52618;SDS011;38513;53.234;6.568;2023-02-01T01:23:09;31.58;;;7.18;;
52618;SDS011;38513;53.234;6.568;2023-02-01T01:25:39;32.70;;;7.25;;
52618;SDS011;38513;53.234;6.568;2023-02-01T01:28:05;32.47;;;7.10;;
52618;SDS011;38513;53.234;6.568;2023-02-01T01:30:31;29.25;;;7.28;;
52618;SDS011;38513;53.234;6.568;2023-02-01T01:32:58;28.77;;;6.57;;
52618;SDS011;38513;53.234;6.568;2023-02-01T01:35:24;31.75;;;6.93;;
52618;SDS011;38513;53.234;6.568;2023-02-01T01:37:50;32.08;;;6.97;;
52618;SDS011;38513;53.234;6.568;2023-02-01T01:40:17;33.08;;;7.25;;
52618;SDS011;38513;53.234;6.568;2023-02-01T01:42:43;29.70;;;6.82;;
52618;SDS011;38513;53.234;6.568;2023-02-01T01:45:29;31.88;;;7.15;;
52618;SDS011;38513;53.234;6.568;2023-02-01T01:48:04;29.13;;;7.00;;
52618;SDS011;38513;53.234;6.568;2023-02-01T01:50:32;32.83;;;7.63;;
52618;SDS011;38513;53.234;6.568;2023-02-01T01:53:00;26.85;;;6.75;;
52618;SDS011;38513;53.234;6.568;2023-02-01T01:55:27;29.17;;;7.10;;
52618;SDS011;38513;53.234;6.568;2023-02-01T01:58:06;34.85;;;7.60;;
52618;SDS011;38513;53.234;6.568;2023-02-01T02:00:34;30.60;;;7.07;;
52618;SDS011;38513;53.234;6.568;2023-02-01T02:03:03;30.90;;;6.50;;
52618;SDS011;38513;53.234;6.568;2023-02-01T02:05:32;35.22;;;7.03;;
52618;SDS011;38513;53.234;6.568;2023-02-01T02:07:59;30.80;;;7.95;;
52618;SDS011;38513;53.234;6.568;2023-02-01T02:10:26;39.60;;;7.57;;
52618;SDS011;38513;53.234;6.568;2023-02-01T02:13:13;36.30;;;8.27;;
52618;SDS011;38513;53.234;6.568;2023-02-01T02:15:41;33.55;;;7.55;;
52618;SDS011;38513;53.234;6.568;2023-02-01T02:18:11;40.50;;;7.70;;
52618;SDS011;38513;53.234;6.568;2023-02-01T02:21:02;35.38;;;7.45;;
52618;SDS011;38513;53.234;6.568;2023-02-01T02:23:37;32.70;;;6.80;;
52618;SDS011;38513;53.234;6.568;2023-02-01T02:39:12;29.42;;;6.75;;
52618;SDS011;38513;53.234;6.568;2023-02-01T02:45:22;32.40;;;7.10;;
52618;SDS011;38513;53.234;6.568;2023-02-01T02:47:56;34.25;;;7.15;;
52618;SDS011;38513;53.234;6.568;2023-02-01T02:53:10;30.17;;;7.50;;
52618;SDS011;38513;53.234;6.568;2023-02-01T02:55:57;33.92;;;6.75;;
52618;SDS011;38513;53.234;6.568;2023-02-01T02:58:43;32.72;;;7.68;;
52618;SDS011;38513;53.234;6.568;2023-02-01T03:01:29;30.25;;;6.60;;
52618;SDS011;38513;53.234;6.568;2023-02-01T03:04:14;26.08;;;6.22;;
52618;SDS011;38513;53.234;6.568;2023-02-01T03:06:43;29.13;;;6.95;;
52618;SDS011;38513;53.234;6.568;2023-02-01T03:09:14;30.55;;;7.00;;
52618;SDS011;38513;53.234;6.568;2023-02-01T03:11:42;31.50;;;6.82;;
52618;SDS011;38513;53.234;6.568;2023-02-01T03:14:29;36.63;;;6.93;;
52618;SDS011;38513;53.234;6.568;2023-02-01T03:17:01;28.40;;;6.65;;
52618;SDS011;38513;53.234;6.568;2023-02-01T03:19:34;34.17;;;7.13;;
52618;SDS011;38513;53.234;6.568;2023-02-01T03:22:08;29.33;;;7.15;;
52618;SDS011;38513;53.234;6.568;2023-02-01T03:24:40;35.20;;;7.35;;
52618;SDS011;38513;53.234;6.568;2023-02-01T03:27:10;31.10;;;7.35;;
52618;SDS011;38513;53.234;6.568;2023-02-01T03:30:00;29.87;;;6.73;;
52618;SDS011;38513;53.234;6.568;2023-02-01T03:32:24;30.17;;;6.60;;
52618;SDS011;38513;53.234;6.568;2023-02-01T03:34:51;33.45;;;7.30;;
52618;SDS011;38513;53.234;6.568;2023-02-01T03:37:22;33.17;;;6.78;;
52618;SDS011;38513;53.234;6.568;2023-02-01T03:42:18;27.95;;;6.82;;
52618;SDS011;38513;53.234;6.568;2023-02-01T03:44:47;28.60;;;6.00;;
52618;SDS011;38513;53.234;6.568;2023-02-01T03:47:16;33.33;;;7.33;;
52618;SDS011;38513;53.234;6.568;2023-02-01T03:49:55;31.30;;;7.07;;
52618;SDS011;38513;53.234;6.568;2023-02-01T03:52:25;32.03;;;6.22;;
52618;SDS011;38513;53.234;6.568;2023-02-01T03:54:51;30.40;;;6.90;;
52618;SDS011;38513;53.234;6.568;2023-02-01T03:57:19;27.75;;;6.57;;
52618;SDS011;38513;53.234;6.568;2023-02-01T03:59:47;29.42;;;6.53;;
52618;SDS011;38513;53.234;6.568;2023-02-01T04:02:13;32.88;;;7.18;;
52618;SDS011;38513;53.234;6.568;2023-02-01T04:04:39;33.17;;;8.00;;
52618;SDS011;38513;53.234;6.568;2023-02-01T04:07:05;33.15;;;7.45;;
52618;SDS011;38513;53.234;6.568;2023-02-01T04:09:32;28.80;;;6.53;;
52618;SDS011;38513;53.234;6.568;2023-02-01T04:11:58;32.97;;;7.43;;
52618;SDS011;38513;53.234;6.568;2023-02-01T04:14:24;36.20;;;7.60;;
52618;SDS011;38513;53.234;6.568;2023-02-01T04:16:50;33.10;;;7.93;;
52618;SDS011;38513;53.234;6.568;2023-02-01T04:19:16;31.63;;;7.38;;
52618;SDS011;38513;53.234;6.568;2023-02-01T04:21:42;32.55;;;6.93;;
52618;SDS011;38513;53.234;6.568;2023-02-01T04:24:08;32.10;;;7.53;;
52618;SDS011;38513;53.234;6.568;2023-02-01T04:26:35;33.83;;;8.00;;
52618;SDS011;38513;53.234;6.568;2023-02-01T04:29:01;33.30;;;7.60;;
52618;SDS011;38513;53.234;6.568;2023-02-01T04:31:27;35.75;;;7.35;;
52618;SDS011;38513;53.234;6.568;2023-02-01T04:33:54;30.23;;;7.17;;
52618;SDS011;38513;53.234;6.568;2023-02-01T04:36:22;31.30;;;7.13;;
52618;SDS011;38513;53.234;6.568;2023-02-01T04:38:49;33.42;;;6.95;;
52618;SDS011;38513;53.234;6.568;2023-02-01T04:41:15;29.55;;;7.00;;
52618;SDS011;38513;53.234;6.568;2023-02-01T04:43:45;32.28;;;6.85;;
52618;SDS011;38513;53.234;6.568;2023-02-01T04:46:11;31.20;;;6.88;;
52618;SDS011;38513;53.234;6.568;2023-02-01T04:48:38;34.17;;;7.40;;
52618;SDS011;38513;53.234;6.568;2023-02-01T04:51:04;34.77;;;7.80;;
52618;SDS011;38513;53.234;6.568;2023-02-01T04:53:30;27.13;;;7.28;;
52618;SDS011;38513;53.234;6.568;2023-02-01T04:55:56;29.63;;;6.95;;
52618;SDS011;38513;53.234;6.568;2023-02-01T04:58:22;31.90;;;7.07;;
52618;SDS011;38513;53.234;6.568;2023-02-01T05:00:48;32.28;;;7.60;;
52618;SDS011;38513;53.234;6.568;2023-02-01T05:03:15;35.70;;;7.57;;
52618;SDS011;38513;53.234;6.568;2023-02-01T05:05:41;28.23;;;6.65;;
52618;SDS011;38513;53.234;6.568;2023-02-01T05:08:07;35.38;;;6.80;;
52618;SDS011;38513;53.234;6.568;2023-02-01T05:10:34;29.55;;;7.70;;
52618;SDS011;38513;53.234;6.568;2023-02-01T05:13:00;33.03;;;6.93;;
52618;SDS011;38513;53.234;6.568;2023-02-01T05:15:44;29.55;;;6.72;;
52618;SDS011;38513;53.234;6.568;2023-02-01T05:18:11;29.05;;;7.55;;
52618;SDS011;38513;53.234;6.568;2023-02-01T05:20:37;31.35;;;6.88;;
52618;SDS011;38513;53.234;6.568;2023-02-01T05:23:03;30.10;;;6.30;;
52618;SDS011;38513;53.234;6.568;2023-02-01T05:25:30;30.70;;;6.72;;
52618;SDS011;38513;53.234;6.568;2023-02-01T05:27:56;36.92;;;7.80;;
52618;SDS011;38513;53.234;6.568;2023-02-01T05:30:22;31.80;;;6.93;;
52618;SDS011;38513;53.234;6.568;2023-02-01T05:32:49;34.85;;;7.07;;
52618;SDS011;38513;53.234;6.568;2023-02-01T05:35:16;32.97;;;6.90;;
52618;SDS011;38513;53.234;6.568;2023-02-01T05:37:42;31.67;;;7.25;;
52618;SDS011;38513;53.234;6.568;2023-02-01T05:40:08;28.33;;;7.00;;
52618;SDS011;38513;53.234;6.568;2023-02-01T05:42:34;30.15;;;7.03;;
52618;SDS011;38513;53.234;6.568;2023-02-01T05:45:01;39.97;;;8.50;;
52618;SDS011;38513;53.234;6.568;2023-02-01T05:47:27;29.80;;;6.97;;
52618;SDS011;38513;53.234;6.568;2023-02-01T05:49:53;27.95;;;6.68;;
52618;SDS011;38513;53.234;6.568;2023-02-01T05:52:19;34.33;;;7.47;;
52618;SDS011;38513;53.234;6.568;2023-02-01T05:54:46;30.60;;;6.90;;
52618;SDS011;38513;53.234;6.568;2023-02-01T05:57:12;33.67;;;6.53;;
52618;SDS011;38513;53.234;6.568;2023-02-01T05:59:39;35.30;;;7.38;;
52618;SDS011;38513;53.234;6.568;2023-02-01T06:02:10;34.60;;;6.75;;
52618;SDS011;38513;53.234;6.568;2023-02-01T06:04:36;31.55;;;7.50;;
52618;SDS011;38513;53.234;6.568;2023-02-01T06:07:03;31.63;;;7.10;;
52618;SDS011;38513;53.234;6.568;2023-02-01T06:09:29;30.55;;;7.80;;
52618;SDS011;38513;53.234;6.568;2023-02-01T06:11:55;29.95;;;6.75;;
52618;SDS011;38513;53.234;6.568;2023-02-01T06:14:22;34.30;;;7.65;;
52618;SDS011;38513;53.234;6.568;2023-02-01T06:16:49;34.40;;;7.88;;
52618;SDS011;38513;53.234;6.568;2023-02-01T06:19:15;32.42;;;7.10;;
52618;SDS011;38513;53.234;6.568;2023-02-01T06:21:41;33.67;;;8.02;;
52618;SDS011;38513;53.234;6.568;2023-02-01T06:24:08;36.20;;;7.70;;
52618;SDS011;38513;53.234;6.568;2023-02-01T06:26:34;35.97;;;7.45;;
52618;SDS011;38513;53.234;6.568;2023-02-01T06:29:01;35.92;;;6.72;;
52618;SDS011;38513;53.234;6.568;2023-02-01T06:31:27;29.27;;;6.30;;
52618;SDS011;38513;53.234;6.568;2023-02-01T06:33:53;35.45;;;7.13;;
52618;SDS011;38513;53.234;6.568;2023-02-01T06:36:20;31.40;;;7.45;;
52618;SDS011;38513;53.234;6.568;2023-02-01T06:38:46;33.10;;;7.63;;
52618;SDS011;38513;53.234;6.568;2023-02-01T06:41:13;34.78;;;7.80;;
52618;SDS011;38513;53.234;6.568;2023-02-01T06:43:39;30.45;;;6.75;;
52618;SDS011;38513;53.234;6.568;2023-02-01T06:46:07;32.88;;;6.78;;
52618;SDS011;38513;53.234;6.568;2023-02-01T06:48:33;32.63;;;7.45;;
52618;SDS011;38513;53.234;6.568;2023-02-01T06:51:00;32.50;;;6.90;;
52618;SDS011;38513;53.234;6.568;2023-02-01T06:53:27;35.90;;;7.30;;
52618;SDS011;38513;53.234;6.568;2023-02-01T06:55:59;34.08;;;7.07;;
52618;SDS011;38513;53.234;6.568;2023-02-01T06:58:29;31.17;;;7.35;;
52618;SDS011;38513;53.234;6.568;2023-02-01T07:00:57;36.05;;;8.10;;
52618;SDS011;38513;53.234;6.568;2023-02-01T07:03:25;37.33;;;7.07;;
52618;SDS011;38513;53.234;6.568;2023-02-01T07:05:55;31.77;;;7.88;;
52618;SDS011;38513;53.234;6.568;2023-02-01T07:08:22;36.35;;;7.57;;
52618;SDS011;38513;53.234;6.568;2023-02-01T07:10:48;39.75;;;7.32;;
52618;SDS011;38513;53.234;6.568;2023-02-01T07:13:14;32.13;;;7.40;;
52618;SDS011;38513;53.234;6.568;2023-02-01T07:15:40;32.33;;;7.38;;
52618;SDS011;38513;53.234;6.568;2023-02-01T07:18:06;34.90;;;7.35;;
52618;SDS011;38513;53.234;6.568;2023-02-01T07:20:33;35.53;;;6.88;;
52618;SDS011;38513;53.234;6.568;2023-02-01T07:22:59;40.72;;;8.20;;
52618;SDS011;38513;53.234;6.568;2023-02-01T07:25:25;32.25;;;6.72;;
52618;SDS011;38513;53.234;6.568;2023-02-01T07:27:51;33.70;;;7.43;;
52618;SDS011;38513;53.234;6.568;2023-02-01T07:30:17;36.70;;;7.95;;
52618;SDS011;38513;53.234;6.568;2023-02-01T07:32:43;35.28;;;7.30;;
52618;SDS011;38513;53.234;6.568;2023-02-01T07:35:16;37.03;;;7.55;;
52618;SDS011;38513;53.234;6.568;2023-02-01T07:37:51;29.98;;;6.95;;
52618;SDS011;38513;53.234;6.568;2023-02-01T07:40:18;36.80;;;7.65;;
52618;SDS011;38513;53.234;6.568;2023-02-01T07:42:50;36.13;;;7.93;;
52618;SDS011;38513;53.234;6.568;2023-02-01T07:45:16;36.75;;;8.13;;
52618;SDS011;38513;53.234;6.568;2023-02-01T07:47:42;38.20;;;8.02;;
52618;SDS011;38513;53.234;6.568;2023-02-01T07:50:09;37.70;;;7.93;;
52618;SDS011;38513;53.234;6.568;2023-02-01T07:52:36;39.40;;;8.18;;
52618;SDS011;38513;53.234;6.568;2023-02-01T07:55:03;41.03;;;7.70;;
52618;SDS011;38513;53.234;6.568;2023-02-01T07:57:29;43.23;;;9.27;;
52618;SDS011;38513;53.234;6.568;2023-02-01T07:59:56;37.42;;;7.75;;
52618;SDS011;38513;53.234;6.568;2023-02-01T08:02:41;33.93;;;8.07;;
52618;SDS011;38513;53.234;6.568;2023-02-01T08:05:07;35.72;;;8.52;;
52618;SDS011;38513;53.234;6.568;2023-02-01T08:07:33;33.67;;;7.70;;
52618;SDS011;38513;53.234;6.568;2023-02-01T08:10:02;35.10;;;7.80;;
52618;SDS011;38513;53.234;6.568;2023-02-01T08:12:30;33.15;;;7.50;;
52618;SDS011;38513;53.234;6.568;2023-02-01T08:15:03;34.97;;;7.28;;
52618;SDS011;38513;53.234;6.568;2023-02-01T08:17:29;32.03;;;7.45;;
52618;SDS011;38513;53.234;6.568;2023-02-01T08:19:55;30.73;;;6.82;;
52618;SDS011;38513;53.234;6.568;2023-02-01T08:22:21;29.33;;;6.70;;
52618;SDS011;38513;53.234;6.568;2023-02-01T08:24:48;32.22;;;7.07;;
52618;SDS011;38513;53.234;6.568;2023-02-01T08:27:17;30.98;;;7.30;;
52618;SDS011;38513;53.234;6.568;2023-02-01T08:29:43;28.17;;;6.38;;
52618;SDS011;38513;53.234;6.568;2023-02-01T08:32:09;33.08;;;6.50;;
52618;SDS011;38513;53.234;6.568;2023-02-01T08:34:36;34.35;;;7.05;;
52618;SDS011;38513;53.234;6.568;2023-02-01T08:37:02;28.25;;;6.57;;
52618;SDS011;38513;53.234;6.568;2023-02-01T08:39:28;37.13;;;7.03;;
52618;SDS011;38513;53.234;6.568;2023-02-01T08:41:54;35.67;;;7.03;;
52618;SDS011;38513;53.234;6.568;2023-02-01T08:44:42;31.17;;;7.00;;
52618;SDS011;38513;53.234;6.568;2023-02-01T08:47:09;36.45;;;7.72;;
52618;SDS011;38513;53.234;6.568;2023-02-01T08:49:38;35.60;;;7.22;;
52618;SDS011;38513;53.234;6.568;2023-02-01T08:52:08;30.13;;;6.85;;
52618;SDS011;38513;53.234;6.568;2023-02-01T08:54:47;31.38;;;6.78;;
52618;SDS011;38513;53.234;6.568;2023-02-01T08:57:13;33.80;;;7.05;;
52618;SDS011;38513;53.234;6.568;2023-02-01T08:59:39;32.17;;;7.07;;
52618;SDS011;38513;53.234;6.568;2023-02-01T09:02:07;27.92;;;6.30;;
52618;SDS011;38513;53.234;6.568;2023-02-01T09:04:34;28.75;;;6.53;;
52618;SDS011;38513;53.234;6.568;2023-02-01T09:07:00;29.00;;;6.38;;
52618;SDS011;38513;53.234;6.568;2023-02-01T09:09:33;26.58;;;6.00;;
52618;SDS011;38513;53.234;6.568;2023-02-01T09:12:00;28.40;;;6.13;;
52618;SDS011;38513;53.234;6.568;2023-02-01T09:14:26;26.48;;;6.43;;
52618;SDS011;38513;53.234;6.568;2023-02-01T09:16:58;29.27;;;6.33;;
52618;SDS011;38513;53.234;6.568;2023-02-01T09:19:24;29.67;;;6.10;;
52618;SDS011;38513;53.234;6.568;2023-02-01T09:21:50;26.70;;;5.40;;
52618;SDS011;38513;53.234;6.568;2023-02-01T09:24:16;25.63;;;5.97;;
52618;SDS011;38513;53.234;6.568;2023-02-01T09:26:43;26.60;;;5.90;;
52618;SDS011;38513;53.234;6.568;2023-02-01T09:29:10;26.35;;;5.72;;
52618;SDS011;38513;53.234;6.568;2023-02-01T09:31:36;24.40;;;6.03;;
52618;SDS011;38513;53.234;6.568;2023-02-01T09:34:03;28.80;;;5.95;;
52618;SDS011;38513;53.234;6.568;2023-02-01T09:36:29;25.40;;;5.65;;
52618;SDS011;38513;53.234;6.568;2023-02-01T09:38:55;26.90;;;5.70;;
52618;SDS011;38513;53.234;6.568;2023-02-01T09:44:11;25.25;;;6.20;;
52618;SDS011;38513;53.234;6.568;2023-02-01T09:46:47;26.88;;;5.80;;
52618;SDS011;38513;53.234;6.568;2023-02-01T09:49:20;22.83;;;5.72;;
52618;SDS011;38513;53.234;6.568;2023-02-01T09:51:48;27.67;;;5.87;;
52618;SDS011;38513;53.234;6.568;2023-02-01T09:54:21;30.13;;;5.93;;
52618;SDS011;38513;53.234;6.568;2023-02-01T09:56:49;27.85;;;6.50;;
52618;SDS011;38513;53.234;6.568;2023-02-01T09:59:23;24.98;;;5.40;;
52618;SDS011;38513;53.234;6.568;2023-02-01T10:01:59;26.15;;;5.53;;
52618;SDS011;38513;53.234;6.568;2023-02-01T10:04:27;27.70;;;5.90;;
52618;SDS011;38513;53.234;6.568;2023-02-01T10:07:00;32.60;;;6.23;;
52618;SDS011;38513;53.234;6.568;2023-02-01T10:14:56;31.10;;;6.57;;
52618;SDS011;38513;53.234;6.568;2023-02-01T10:25:36;28.02;;;6.35;;
52618;SDS011;38513;53.234;6.568;2023-02-01T10:28:03;28.88;;;6.03;;
52618;SDS011;38513;53.234;6.568;2023-02-01T10:30:30;27.77;;;6.20;;
52618;SDS011;38513;53.234;6.568;2023-02-01T10:33:15;28.80;;;6.03;;
52618;SDS011;38513;53.234;6.568;2023-02-01T10:35:42;31.40;;;6.47;;
52618;SDS011;38513;53.234;6.568;2023-02-01T10:38:12;35.27;;;5.97;;
52618;SDS011;38513;53.234;6.568;2023-02-01T10:40:40;27.98;;;5.60;;
52618;SDS011;38513;53.234;6.568;2023-02-01T10:43:07;28.98;;;6.90;;
52618;SDS011;38513;53.234;6.568;2023-02-01T10:45:35;26.98;;;5.38;;
52618;SDS011;38513;53.234;6.568;2023-02-01T10:48:04;29.42;;;6.88;;
52618;SDS011;38513;53.234;6.568;2023-02-01T10:50:38;27.85;;;6.57;;
52618;SDS011;38513;53.234;6.568;2023-02-01T10:53:09;28.83;;;5.70;;
52618;SDS011;38513;53.234;6.568;2023-02-01T10:58:17;27.48;;;6.03;;
52618;SDS011;38513;53.234;6.568;2023-02-01T11:00:53;23.98;;;5.97;;
52618;SDS011;38513;53.234;6.568;2023-02-01T11:06:09;26.58;;;5.90;;
52618;SDS011;38513;53.234;6.568;2023-02-01T11:17:54;29.90;;;6.75;;
52618;SDS011;38513;53.234;6.568;2023-02-01T11:23:00;30.42;;;6.25;;
52618;SDS011;38513;53.234;6.568;2023-02-01T11:25:28;33.72;;;6.80;;
52618;SDS011;38513;53.234;6.568;2023-02-01T11:27:56;16.90;;;4.20;;
52618;SDS011;38513;53.234;6.568;2023-02-01T11:30:33;26.17;;;5.05;;
52618;SDS011;38513;53.234;6.568;2023-02-01T11:33:01;30.15;;;6.47;;
52618;SDS011;38513;53.234;6.568;2023-02-01T11:35:38;14.43;;;2.60;;
52618;SDS011;38513;53.234;6.568;2023-02-01T11:38:17;8.63;;;1.42;;
52618;SDS011;38513;53.234;6.568;2023-02-01T11:40:45;9.40;;;1.83;;
52618;SDS011;38513;53.234;6.568;2023-02-01T11:43:22;12.23;;;1.73;;
52618;SDS011;38513;53.234;6.568;2023-02-01T11:45:53;13.10;;;1.98;;
52618;SDS011;38513;53.234;6.568;2023-02-01T11:48:20;10.27;;;1.80;;
52618;SDS011;38513;53.234;6.568;2023-02-01T11:50:50;12.25;;;2.22;;
52618;SDS011;38513;53.234;6.568;2023-02-01T11:56:27;14.35;;;2.28;;
52618;SDS011;38513;53.234;6.568;2023-02-01T11:59:18;13.18;;;2.33;;
52618;SDS011;38513;53.234;6.568;2023-02-01T12:02:00;14.75;;;2.10;;
52618;SDS011;38513;53.234;6.568;2023-02-01T12:07:28;17.63;;;2.33;;
52618;SDS011;38513;53.234;6.568;2023-02-01T12:10:03;20.10;;;3.45;;
52618;SDS011;38513;53.234;6.568;2023-02-01T12:13:08;17.63;;;3.38;;
52618;SDS011;38513;53.234;6.568;2023-02-01T12:23:27;28.95;;;5.93;;
52618;SDS011;38513;53.234;6.568;2023-02-01T12:46:54;36.95;;;8.45;;
52618;SDS011;38513;53.234;6.568;2023-02-01T12:52:16;36.40;;;8.75;;
52618;SDS011;38513;53.234;6.568;2023-02-01T12:57:49;40.30;;;8.07;;
52618;SDS011;38513;53.234;6.568;2023-02-01T13:03:37;36.97;;;8.68;;
52618;SDS011;38513;53.234;6.568;2023-02-01T13:06:17;36.22;;;7.32;;
52618;SDS011;38513;53.234;6.568;2023-02-01T13:08:54;34.28;;;7.65;;
52618;SDS011;38513;53.234;6.568;2023-02-01T13:11:24;31.45;;;6.75;;
52618;SDS011;38513;53.234;6.568;2023-02-01T13:16:31;31.15;;;7.50;;
52618;SDS011;38513;53.234;6.568;2023-02-01T13:19:06;39.92;;;7.70;;
52618;SDS011;38513;53.234;6.568;2023-02-01T13:21:37;32.22;;;7.32;;
52618;SDS011;38513;53.234;6.568;2023-02-01T13:24:06;35.63;;;7.82;;
52618;SDS011;38513;53.234;6.568;2023-02-01T13:26:35;30.63;;;7.13;;
52618;SDS011;38513;53.234;6.568;2023-02-01T13:29:05;35.95;;;8.27;;
52618;SDS011;38513;53.234;6.568;2023-02-01T13:48:55;38.28;;;8.18;;
52618;SDS011;38513;53.234;6.568;2023-02-01T13:52:36;31.75;;;6.70;;
52618;SDS011;38513;53.234;6.568;2023-02-01T14:11:04;34.08;;;7.68;;
52618;SDS011;38513;53.234;6.568;2023-02-01T14:13:40;34.00;;;7.20;;
52618;SDS011;38513;53.234;6.568;2023-02-01T14:16:22;35.08;;;7.75;;
52618;SDS011;38513;53.234;6.568;2023-02-01T14:18:58;33.47;;;6.97;;
52618;SDS011;38513;53.234;6.568;2023-02-01T14:30:33;32.13;;;7.13;;
52618;SDS011;38513;53.234;6.568;2023-02-01T14:36:23;36.00;;;7.88;;
52618;SDS011;38513;53.234;6.568;2023-02-01T14:43:02;34.63;;;8.20;;
52618;SDS011;38513;53.234;6.568;2023-02-01T14:51:24;36.90;;;7.68;;
52618;SDS011;38513;53.234;6.568;2023-02-01T14:53:53;33.83;;;7.57;;
52618;SDS011;38513;53.234;6.568;2023-02-01T14:56:25;32.27;;;7.57;;
52618;SDS011;38513;53.234;6.568;2023-02-01T14:58:55;31.10;;;6.85;;
52618;SDS011;38513;53.234;6.568;2023-02-01T15:01:39;34.70;;;7.43;;
52618;SDS011;38513;53.234;6.568;2023-02-01T15:04:18;30.05;;;6.68;;
52618;SDS011;38513;53.234;6.568;2023-02-01T15:07:07;29.52;;;6.65;;
52618;SDS011;38513;53.234;6.568;2023-02-01T15:09:37;33.35;;;7.25;;
52618;SDS011;38513;53.234;6.568;2023-02-01T15:12:27;33.97;;;6.88;;
52618;SDS011;38513;53.234;6.568;2023-02-01T15:18:23;36.60;;;7.78;;
52618;SDS011;38513;53.234;6.568;2023-02-01T15:21:01;34.17;;;7.68;;
52618;SDS011;38513;53.234;6.568;2023-02-01T15:23:29;33.03;;;7.23;;
52618;SDS011;38513;53.234;6.568;2023-02-01T15:26:06;30.88;;;6.72;;
52618;SDS011;38513;53.234;6.568;2023-02-01T15:32:03;29.95;;;7.65;;
52618;SDS011;38513;53.234;6.568;2023-02-01T15:49:43;30.75;;;7.03;;
52618;SDS011;38513;53.234;6.568;2023-02-01T16:06:03;28.55;;;6.90;;
52618;SDS011;38513;53.234;6.568;2023-02-01T16:08:30;31.25;;;6.00;;
52618;SDS011;38513;53.234;6.568;2023-02-01T16:22:15;32.63;;;7.50;;
52618;SDS011;38513;53.234;6.568;2023-02-01T16:27:48;32.15;;;6.72;;
52618;SDS011;38513;53.234;6.568;2023-02-01T16:33:36;28.80;;;5.88;;
52618;SDS011;38513;53.234;6.568;2023-02-01T16:36:29;33.67;;;8.00;;
52618;SDS011;38513;53.234;6.568;2023-02-01T16:39:11;26.58;;;6.75;;
52618;SDS011;38513;53.234;6.568;2023-02-01T16:41:59;32.03;;;6.82;;
52618;SDS011;38513;53.234;6.568;2023-02-01T16:45:23;31.58;;;7.45;;
52618;SDS011;38513;53.234;6.568;2023-02-01T16:51:23;29.40;;;7.13;;
52618;SDS011;38513;53.234;6.568;2023-02-01T16:53:57;25.55;;;5.95;;
52618;SDS011;38513;53.234;6.568;2023-02-01T16:59:31;33.10;;;7.07;;
52618;SDS011;38513;53.234;6.568;2023-02-01T17:02:04;29.77;;;6.32;;
52618;SDS011;38513;53.234;6.568;2023-02-01T17:04:30;30.38;;;6.43;;
52618;SDS011;38513;53.234;6.568;2023-02-01T17:07:01;26.52;;;6.03;;
52618;SDS011;38513;53.234;6.568;2023-02-01T17:09:36;32.83;;;6.47;;
52618;SDS011;38513;53.234;6.568;2023-02-01T17:12:06;27.87;;;6.20;;
52618;SDS011;38513;53.234;6.568;2023-02-01T17:14:35;26.63;;;7.07;;
52618;SDS011;38513;53.234;6.568;2023-02-01T17:17:10;29.37;;;6.37;;
52618;SDS011;38513;53.234;6.568;2023-02-01T17:19:39;32.23;;;6.80;;
52618;SDS011;38513;53.234;6.568;2023-02-01T17:22:11;30.10;;;7.15;;
52618;SDS011;38513;53.234;6.568;2023-02-01T17:24:49;35.30;;;7.28;;
52618;SDS011;38513;53.234;6.568;2023-02-01T17:27:16;30.23;;;6.25;;
52618;SDS011;38513;53.234;6.568;2023-02-01T17:29:46;32.38;;;7.03;;
52618;SDS011;38513;53.234;6.568;2023-02-01T17:35:22;26.88;;;5.63;;
52618;SDS011;38513;53.234;6.568;2023-02-01T17:37:50;24.75;;;6.13;;
52618;SDS011;38513;53.234;6.568;2023-02-01T17:40:17;27.70;;;5.50;;
52618;SDS011;38513;53.234;6.568;2023-02-01T17:42:44;27.15;;;5.65;;
52618;SDS011;38513;53.234;6.568;2023-02-01T17:45:20;26.48;;;6.50;;
52618;SDS011;38513;53.234;6.568;2023-02-01T17:47:54;27.38;;;5.90;;
52618;SDS011;38513;53.234;6.568;2023-02-01T17:50:25;22.00;;;5.32;;
52618;SDS011;38513;53.234;6.568;2023-02-01T17:53:04;22.75;;;5.78;;
52618;SDS011;38513;53.234;6.568;2023-02-01T17:55:49;22.88;;;5.20;;
52618;SDS011;38513;53.234;6.568;2023-02-01T17:58:19;26.97;;;5.30;;
52618;SDS011;38513;53.234;6.568;2023-02-01T18:00:57;26.38;;;5.93;;
52618;SDS011;38513;53.234;6.568;2023-02-01T18:03:29;24.25;;;6.65;;
52618;SDS011;38513;53.234;6.568;2023-02-01T18:06:24;25.20;;;6.53;;
52618;SDS011;38513;53.234;6.568;2023-02-01T18:08:58;25.80;;;5.75;;
52618;SDS011;38513;53.234;6.568;2023-02-01T18:14:56;24.88;;;5.25;;
52618;SDS011;38513;53.234;6.568;2023-02-01T18:17:39;24.88;;;5.15;;
52618;SDS011;38513;53.234;6.568;2023-02-01T18:20:12;29.08;;;5.00;;
52618;SDS011;38513;53.234;6.568;2023-02-01T18:26:24;26.02;;;5.38;;
52618;SDS011;38513;53.234;6.568;2023-02-01T18:28:50;27.25;;;5.65;;
52618;SDS011;38513;53.234;6.568;2023-02-01T18:31:24;23.83;;;5.57;;
52618;SDS011;38513;53.234;6.568;2023-02-01T18:40:06;25.95;;;6.15;;
52618;SDS011;38513;53.234;6.568;2023-02-01T18:43:18;25.00;;;5.83;;
52618;SDS011;38513;53.234;6.568;2023-02-01T18:45:47;28.38;;;6.15;;
52618;SDS011;38513;53.234;6.568;2023-02-01T18:48:16;25.30;;;6.07;;
52618;SDS011;38513;53.234;6.568;2023-02-01T18:50:45;33.53;;;6.70;;
52618;SDS011;38513;53.234;6.568;2023-02-01T18:53:15;27.30;;;5.97;;